createdAt,value
2023-03-26T00:01:41.092Z,60.66
2023-03-26T00:04:08.495Z,62.03
2023-03-26T00:06:39.990Z,64.20
2023-03-26T00:09:13.774Z,65.13
2023-03-26T00:11:42.084Z,67.64
2023-03-26T00:14:14.176Z,69.46
2023-03-26T00:16:44.363Z,69.84
2023-03-26T00:19:12.885Z,69.24
2023-03-26T00:21:40.232Z,70.12
2023-03-26T00:24:15.491Z,69.78
2023-03-26T00:26:43.559Z,71.52
2023-03-26T00:29:12.225Z,72.48
2023-03-26T00:31:40.193Z,71.90
2023-03-26T00:34:07.369Z,70.08
2023-03-26T00:36:36.340Z,68.70
2023-03-26T00:39:06.410Z,69.70
2023-03-26T00:41:37.476Z,67.86
2023-03-26T00:44:05.063Z,65.85
2023-03-26T00:46:32.689Z,65.59
2023-03-26T00:49:01.999Z,64.31
2023-03-26T00:51:29.984Z,64.08
2023-03-26T00:53:58.768Z,64.40
2023-03-26T00:56:26.731Z,65.38
2023-03-26T00:58:54.040Z,67.41
2023-03-26T01:01:30.739Z,67.22
2023-03-26T01:04:07.399Z,69.17
2023-03-26T01:06:41.592Z,70.00
2023-03-26T01:09:21.119Z,70.04
2023-03-26T01:11:50.224Z,72.62
2023-03-26T01:14:27.113Z,72.59
2023-03-26T01:17:01.384Z,74.24
2023-03-26T01:19:46.149Z,72.34
2023-03-26T01:22:22.717Z,74.28
2023-03-26T01:24:54.197Z,68.83
2023-03-26T01:27:44.706Z,67.34
2023-03-26T01:30:29.385Z,65.99
2023-03-26T01:33:22.312Z,65.60
2023-03-26T01:36:05.764Z,64.68
2023-03-26T01:38:40.294Z,64.31
2023-03-26T01:41:10.298Z,65.93
2023-03-26T01:43:50.580Z,67.42
2023-03-26T01:46:19.802Z,67.98
2023-03-26T01:48:48.498Z,71.97
2023-03-26T01:51:31.225Z,70.77
2023-03-26T01:53:59.949Z,73.30
2023-03-26T01:56:38.406Z,71.47
2023-03-26T01:59:29.894Z,71.25
2023-03-26T02:02:27.192Z,66.89
2023-03-26T02:04:58.102Z,67.14
2023-03-26T02:07:38.266Z,64.50
2023-03-26T02:10:14.287Z,63.15
2023-03-26T02:12:43.245Z,60.73
2023-03-26T02:15:11.727Z,61.57
2023-03-26T02:17:40.762Z,65.93
2023-03-26T02:20:10.704Z,65.43
2023-03-26T02:22:41.893Z,63.67
2023-03-26T02:25:13.459Z,64.46
2023-03-26T02:27:43.176Z,65.59
2023-03-26T02:30:15.812Z,63.20
2023-03-26T02:32:44.903Z,63.30
2023-03-26T02:35:13.097Z,64.70
2023-03-26T02:37:40.794Z,61.69
2023-03-26T02:40:16.305Z,58.97
2023-03-26T02:42:45.975Z,57.77
2023-03-26T02:45:13.785Z,57.60
2023-03-26T02:48:16.689Z,56.36
2023-03-26T02:50:57.861Z,55.65
2023-03-26T02:53:34.405Z,56.07
2023-03-26T02:56:20.232Z,56.48
2023-03-26T02:59:01.078Z,55.66
2023-03-26T03:01:31.137Z,55.47
2023-03-26T03:03:58.754Z,55.47
2023-03-26T03:06:38.624Z,55.92
2023-03-26T03:09:09.534Z,56.01
2023-03-26T03:11:37.489Z,56.59
2023-03-26T03:14:05.951Z,56.65
2023-03-26T03:16:34.173Z,58.55
2023-03-26T03:19:10.076Z,60.88
2023-03-26T03:21:39.118Z,62.17
2023-03-26T03:24:07.897Z,58.02
2023-03-26T03:26:41.564Z,60.78
2023-03-26T03:29:29.003Z,60.82
2023-03-26T03:32:00.410Z,60.22
2023-03-26T03:34:42.989Z,60.97
2023-03-26T03:37:10.503Z,60.96
2023-03-26T03:39:49.666Z,61.58
2023-03-26T03:42:20.017Z,61.50
2023-03-26T03:44:49.021Z,61.80
2023-03-26T03:47:36.249Z,62.24
2023-03-26T03:50:04.356Z,72.47
2023-03-26T03:52:32.022Z,79.23
2023-03-26T03:55:02.419Z,85.22
2023-03-26T03:57:57.120Z,93.12
2023-03-26T04:00:25.636Z,95.74
2023-03-26T04:03:14.706Z,98.34
2023-03-26T04:05:44.292Z,100.00
2023-03-26T04:08:11.801Z,100.00
2023-03-26T04:10:48.315Z,100.00
2023-03-26T04:13:34.258Z,100.00
2023-03-26T04:16:21.799Z,100.00
2023-03-26T04:18:49.739Z,100.00
2023-03-26T04:21:17.307Z,100.00
2023-03-26T04:23:45.974Z,100.00
2023-03-26T04:26:31.122Z,99.33
2023-03-26T04:29:06.608Z,100.00
2023-03-26T04:31:36.621Z,100.00
2023-03-26T04:34:08.611Z,99.11
2023-03-26T04:36:46.695Z,98.35
2023-03-26T04:39:15.717Z,100.00
2023-03-26T04:42:11.841Z,100.00
2023-03-26T04:44:52.604Z,100.00
2023-03-26T04:47:20.368Z,100.00
2023-03-26T04:49:48.722Z,100.00
2023-03-26T04:52:17.690Z,100.00
2023-03-26T04:54:47.851Z,100.00
2023-03-26T04:57:26.783Z,100.00
2023-03-26T05:00:19.694Z,100.00
2023-03-26T05:02:58.156Z,100.00
2023-03-26T05:05:27.128Z,100.00
2023-03-26T05:07:55.395Z,100.00
2023-03-26T05:10:24.132Z,98.59
2023-03-26T05:13:02.789Z,97.44
2023-03-26T05:15:34.343Z,94.95
2023-03-26T05:18:27.518Z,94.29
2023-03-26T05:20:57.804Z,93.41
2023-03-26T05:23:26.731Z,93.25
2023-03-26T05:26:07.963Z,94.05
2023-03-26T05:28:36.395Z,96.79
2023-03-26T05:31:15.817Z,96.77
2023-03-26T05:33:46.736Z,98.18
2023-03-26T05:36:15.642Z,99.74
2023-03-26T05:38:49.998Z,100.00
2023-03-26T05:41:37.235Z,99.18
2023-03-26T05:44:04.914Z,100.00
2023-03-26T05:46:32.569Z,98.99
2023-03-26T05:49:00.669Z,95.13
2023-03-26T05:51:31.560Z,91.42
2023-03-26T05:54:14.802Z,91.99
2023-03-26T05:57:01.033Z,90.73
2023-03-26T05:59:46.622Z,88.45
2023-03-26T06:02:47.438Z,86.49
2023-03-26T06:05:52.954Z,86.82
2023-03-26T06:08:32.524Z,86.95
2023-03-26T06:11:02.113Z,85.14
2023-03-26T06:13:33.192Z,88.17
2023-03-26T06:16:00.665Z,87.44
2023-03-26T06:18:34.041Z,89.07
2023-03-26T06:21:20.476Z,90.98
2023-03-26T06:23:58.483Z,92.26
2023-03-26T06:26:48.266Z,88.29
2023-03-26T06:29:18.347Z,88.90
2023-03-26T06:32:18.425Z,85.47
2023-03-26T06:34:53.359Z,81.33
2023-03-26T06:37:20.522Z,80.48
2023-03-26T06:39:49.245Z,78.46
2023-03-26T06:42:22.009Z,80.19
2023-03-26T06:45:28.894Z,77.45
2023-03-26T06:48:28.756Z,78.34
2023-03-26T06:51:13.307Z,76.99
2023-03-26T06:53:58.932Z,73.30
2023-03-26T06:56:45.285Z,72.79
2023-03-26T06:59:31.409Z,69.93
2023-03-26T07:02:18.941Z,69.44
2023-03-26T07:05:05.204Z,71.00
2023-03-26T07:07:50.880Z,70.91
2023-03-26T07:10:36.673Z,71.54
2023-03-26T07:13:12.616Z,71.04
2023-03-26T07:15:58.529Z,71.80
2023-03-26T07:18:40.338Z,68.50
2023-03-26T07:21:10.954Z,67.74
2023-03-26T07:23:38.471Z,63.73
2023-03-26T07:26:56.586Z,61.36
2023-03-26T07:29:59.324Z,60.31
2023-03-26T07:32:53.386Z,57.86
2023-03-26T07:35:46.889Z,57.61
2023-03-26T07:38:52.193Z,60.07
2023-03-26T07:41:56.254Z,57.94
2023-03-26T07:44:47.844Z,59.28
2023-03-26T07:47:35.349Z,55.19
2023-03-26T07:50:25.835Z,55.24
2023-03-26T07:53:11.486Z,54.26
2023-03-26T07:56:17.022Z,53.99
2023-03-26T07:59:04.237Z,53.46
2023-03-26T08:01:57.271Z,50.38
2023-03-26T08:04:44.198Z,49.21
2023-03-26T08:07:53.355Z,48.84
2023-03-26T08:10:43.421Z,49.66
2023-03-26T08:13:39.443Z,48.50
2023-03-26T08:16:24.159Z,50.07
2023-03-26T08:18:54.630Z,49.61
2023-03-26T08:21:29.153Z,49.75
2023-03-26T08:24:13.866Z,49.53
2023-03-26T08:26:53.321Z,47.05
2023-03-26T08:29:35.216Z,46.97
2023-03-26T08:32:04.915Z,47.90
2023-03-26T08:34:32.170Z,47.38
2023-03-26T08:36:59.284Z,47.00
2023-03-26T08:39:26.372Z,48.78
2023-03-26T08:42:33.350Z,47.56
2023-03-26T08:45:21.638Z,50.95
2023-03-26T08:48:19.095Z,48.85
2023-03-26T08:51:01.878Z,49.69
2023-03-26T08:54:04.243Z,51.05
2023-03-26T08:56:50.153Z,48.28
2023-03-26T08:59:54.488Z,46.87
2023-03-26T09:02:38.569Z,47.30
2023-03-26T09:05:17.715Z,45.80
2023-03-26T09:08:09.182Z,46.76
2023-03-26T09:10:53.243Z,46.15
2023-03-26T09:13:38.610Z,46.06
2023-03-26T09:16:27.577Z,46.11
2023-03-26T09:19:42.987Z,46.62
2023-03-26T09:22:28.362Z,44.22
2023-03-26T09:25:34.871Z,44.42
2023-03-26T09:28:14.596Z,45.03
2023-03-26T09:31:08.226Z,44.07
2023-03-26T09:33:56.635Z,44.42
2023-03-26T09:36:32.780Z,44.12
2023-03-26T09:39:09.027Z,44.11
2023-03-26T09:41:44.553Z,45.92
2023-03-26T09:44:17.424Z,44.28
2023-03-26T09:47:04.087Z,49.75
2023-03-26T09:49:37.783Z,43.31
2023-03-26T09:52:05.210Z,44.18
2023-03-26T09:54:37.158Z,43.49
2023-03-26T09:57:26.203Z,43.69
2023-03-26T10:00:02.163Z,44.24
2023-03-26T10:03:00.395Z,55.32
2023-03-26T10:05:58.645Z,47.85
2023-03-26T10:09:03.123Z,44.60
2023-03-26T10:11:39.018Z,43.78
2023-03-26T10:14:33.864Z,49.81
2023-03-26T10:17:17.082Z,41.20
2023-03-26T10:20:09.879Z,40.79
2023-03-26T10:22:37.956Z,40.15
2023-03-26T10:25:27.395Z,40.51
2023-03-26T10:28:26.850Z,43.29
2023-03-26T10:31:23.198Z,40.97
2023-03-26T10:34:08.110Z,41.71
2023-03-26T10:36:57.376Z,38.79
2023-03-26T10:40:08.313Z,37.63
2023-03-26T10:42:42.476Z,37.80
2023-03-26T10:45:57.284Z,37.55
2023-03-26T10:48:51.860Z,35.98
2023-03-26T10:51:33.700Z,36.93
2023-03-26T10:54:39.763Z,35.65
2023-03-26T10:57:22.829Z,37.16
2023-03-26T10:59:50.636Z,36.38
2023-03-26T11:02:44.601Z,35.87
2023-03-26T11:05:42.355Z,39.11
2023-03-26T11:08:38.428Z,36.06
2023-03-26T11:11:33.121Z,34.25
2023-03-26T11:14:15.085Z,33.84
2023-03-26T11:16:55.872Z,32.95
2023-03-26T11:19:37.223Z,42.73
2023-03-26T11:22:29.191Z,36.64
2023-03-26T11:25:04.447Z,38.47
2023-03-26T11:27:50.059Z,35.38
2023-03-26T11:30:30.050Z,37.80
2023-03-26T11:33:08.204Z,36.94
2023-03-26T11:35:44.098Z,37.15
2023-03-26T11:38:22.035Z,35.62
2023-03-26T11:40:53.509Z,37.03
2023-03-26T11:43:52.828Z,36.23
2023-03-26T11:46:23.615Z,36.61
2023-03-26T11:48:58.458Z,36.91
2023-03-26T11:51:33.479Z,34.42
2023-03-26T11:54:02.013Z,35.59
2023-03-26T11:57:05.211Z,33.02
2023-03-26T11:59:56.462Z,33.57
2023-03-26T12:02:26.385Z,34.43
2023-03-26T12:05:12.468Z,29.57
2023-03-26T12:08:00.774Z,29.13
2023-03-26T12:10:39.505Z,30.03
2023-03-26T12:13:14.595Z,39.44
2023-03-26T12:15:44.438Z,37.21
2023-03-26T12:18:26.411Z,32.00
2023-03-26T12:21:16.160Z,31.63
2023-03-26T12:23:52.042Z,31.03
2023-03-26T12:26:22.321Z,32.66
2023-03-26T12:28:51.632Z,27.54
2023-03-26T12:31:19.783Z,26.00
2023-03-26T12:34:06.627Z,26.70
2023-03-26T12:36:36.103Z,27.63
2023-03-26T12:40:10.632Z,31.69
2023-03-26T12:44:53.177Z,27.08
2023-03-26T12:45:24.069Z,34.26
2023-03-26T12:47:57.106Z,30.97
2023-03-26T12:50:57.611Z,23.81
2023-03-26T12:53:55.614Z,22.60
2023-03-26T12:56:22.556Z,25.73
2023-03-26T12:59:14.458Z,27.00
2023-03-26T13:02:12.342Z,22.43
2023-03-26T13:05:02.238Z,23.88
2023-03-26T13:08:17.172Z,24.12
2023-03-26T13:10:51.398Z,25.85
2023-03-26T13:13:42.972Z,23.47
2023-03-26T13:16:51.642Z,21.40
2023-03-26T13:19:27.410Z,25.97
2023-03-26T13:21:57.513Z,27.85
2023-03-26T13:24:46.300Z,27.05
2023-03-26T13:27:39.079Z,25.94
2023-03-26T13:30:14.973Z,24.38
2023-03-26T13:33:11.107Z,22.15
2023-03-26T13:35:47.116Z,20.67
2023-03-26T13:38:37.306Z,20.92
2023-03-26T13:41:34.580Z,19.89
2023-03-26T13:44:31.390Z,21.07
2023-03-26T13:47:09.553Z,19.03
2023-03-26T13:50:17.986Z,21.97
2023-03-26T13:52:53.312Z,20.55
2023-03-26T13:55:30.177Z,21.34
2023-03-26T13:58:02.479Z,19.69
2023-03-26T14:00:55.742Z,22.26
2023-03-26T14:03:54.417Z,22.90
2023-03-26T14:06:42.469Z,19.81
2023-03-26T14:09:38.680Z,19.58
2023-03-26T14:12:38.627Z,21.22
2023-03-26T14:15:14.464Z,23.41
2023-03-26T14:18:27.480Z,22.46
2023-03-26T14:21:17.689Z,20.65
2023-03-26T14:23:56.876Z,19.01
2023-03-26T14:27:03.792Z,21.73
2023-03-26T14:29:57.874Z,22.82
2023-03-26T14:32:30.740Z,21.80
2023-03-26T14:35:20.593Z,22.00
2023-03-26T14:38:09.474Z,25.04
2023-03-26T14:41:14.589Z,20.09
2023-03-26T14:44:47.639Z,24.67
2023-03-26T14:47:19.543Z,22.96
2023-03-26T14:50:11.102Z,20.25
2023-03-26T14:52:52.045Z,21.74
2023-03-26T14:55:48.914Z,24.15
2023-03-26T14:58:40.994Z,22.04
2023-03-26T15:01:27.254Z,20.13
2023-03-26T15:04:31.655Z,22.08
2023-03-26T15:07:36.396Z,22.21
2023-03-26T15:10:24.617Z,21.20
2023-03-26T15:13:28.327Z,38.99
2023-03-26T15:16:14.192Z,36.71
2023-03-26T15:18:57.191Z,34.07
2023-03-26T15:21:51.682Z,29.50
2023-03-26T15:24:56.219Z,25.43
2023-03-26T15:27:24.734Z,26.92
2023-03-26T15:30:16.404Z,25.32
2023-03-26T15:33:01.665Z,25.72
2023-03-26T15:35:54.693Z,27.57
2023-03-26T15:38:29.064Z,24.91
2023-03-26T15:41:18.835Z,23.42
2023-03-26T15:44:23.266Z,25.85
2023-03-26T15:46:51.261Z,24.60
2023-03-26T15:49:24.304Z,28.88
2023-03-26T15:52:24.274Z,24.79
2023-03-26T15:55:02.071Z,25.33
2023-03-26T15:57:53.648Z,26.85
2023-03-26T16:00:26.222Z,27.10
2023-03-26T16:03:11.375Z,26.08
2023-03-26T16:06:02.540Z,25.96
2023-03-26T16:08:41.379Z,26.43
2023-03-26T16:11:12.859Z,27.23
2023-03-26T16:14:19.739Z,25.11
2023-03-26T16:16:58.863Z,25.34
2023-03-26T16:19:41.492Z,25.94
2023-03-26T16:22:15.701Z,25.37
2023-03-26T16:24:49.672Z,26.62
2023-03-26T16:27:28.350Z,27.17
2023-03-26T16:30:01.398Z,26.61
2023-03-26T16:32:34.449Z,26.69
2023-03-26T16:35:10.603Z,28.94
2023-03-26T16:38:06.025Z,27.98
2023-03-26T16:40:35.343Z,27.41
2023-03-26T16:43:14.529Z,30.80
2023-03-26T16:46:13.208Z,28.85
2023-03-26T16:48:59.273Z,28.71
2023-03-26T16:51:50.573Z,28.62
2023-03-26T16:54:39.769Z,30.73
2023-03-26T16:57:23.988Z,30.13
2023-03-26T17:00:07.532Z,30.38
2023-03-26T17:03:19.946Z,30.76
2023-03-26T17:06:02.502Z,31.36
2023-03-26T17:08:42.890Z,30.89
2023-03-26T17:11:24.667Z,32.81
2023-03-26T17:13:54.349Z,32.46
2023-03-26T17:16:29.970Z,32.12
2023-03-26T17:19:21.592Z,32.37
2023-03-26T17:22:21.785Z,32.34
2023-03-26T17:25:21.107Z,32.70
2023-03-26T17:28:35.577Z,33.12
2023-03-26T17:31:05.780Z,33.63
2023-03-26T17:33:37.007Z,33.41
2023-03-26T17:36:13.002Z,33.76
2023-03-26T17:38:40.435Z,33.50
2023-03-26T17:41:15.859Z,34.10
2023-03-26T17:43:47.180Z,33.73
2023-03-26T17:46:35.185Z,34.12
2023-03-26T17:49:19.417Z,36.51
2023-03-26T17:52:17.231Z,34.90
2023-03-26T17:54:51.546Z,35.12
2023-03-26T17:57:42.189Z,35.25
2023-03-26T18:00:18.705Z,35.30
2023-03-26T18:02:54.346Z,35.62
2023-03-26T18:05:24.844Z,35.95
2023-03-26T18:08:02.366Z,35.67
2023-03-26T18:10:49.822Z,36.49
2023-03-26T18:13:31.834Z,36.74
2023-03-26T18:16:37.054Z,36.57
2023-03-26T18:19:19.280Z,36.86
2023-03-26T18:21:50.612Z,36.98
2023-03-26T18:24:39.665Z,37.49
2023-03-26T18:27:12.582Z,37.31
2023-03-26T18:29:44.622Z,38.04
2023-03-26T18:32:12.176Z,37.96
2023-03-26T18:34:50.214Z,38.32
2023-03-26T18:37:35.653Z,38.81
2023-03-26T18:40:11.924Z,39.13
2023-03-26T18:42:41.281Z,39.22
2023-03-26T18:45:17.211Z,39.30
2023-03-26T18:47:44.472Z,38.39
2023-03-26T18:50:19.109Z,39.14
2023-03-26T18:52:46.406Z,39.01
2023-03-26T18:55:14.819Z,39.28
2023-03-26T18:57:43.133Z,39.65
2023-03-26T19:00:21.017Z,40.37
2023-03-26T19:02:51.263Z,40.49
2023-03-26T19:05:20.456Z,40.49
2023-03-26T19:07:48.122Z,42.95
2023-03-26T19:10:22.424Z,40.77
2023-03-26T19:13:01.390Z,40.60
2023-03-26T19:15:34.287Z,40.65
2023-03-26T19:18:14.159Z,40.38
2023-03-26T19:20:51.065Z,41.09
2023-03-26T19:23:21.493Z,40.98
2023-03-26T19:26:01.891Z,41.51
2023-03-26T19:28:36.008Z,42.20
2023-03-26T19:31:19.643Z,41.91
2023-03-26T19:33:55.372Z,42.16
2023-03-26T19:36:30.472Z,42.49
2023-03-26T19:39:00.200Z,43.37
2023-03-26T19:41:36.185Z,42.20
2023-03-26T19:44:26.183Z,43.27
2023-03-26T19:47:02.993Z,43.21
2023-03-26T19:49:33.312Z,43.38
2023-03-26T19:52:17.913Z,43.25
2023-03-26T19:55:10.459Z,46.26
2023-03-26T19:57:38.200Z,43.85
2023-03-26T20:00:13.706Z,43.46
2023-03-26T20:02:46.682Z,43.36
2023-03-26T20:05:26.058Z,43.47
2023-03-26T20:07:57.623Z,42.93
2023-03-26T20:10:25.039Z,42.65
2023-03-26T20:12:52.804Z,43.53
2023-03-26T20:15:25.939Z,45.32
2023-03-26T20:17:54.272Z,45.61
2023-03-26T20:20:25.870Z,46.48
2023-03-26T20:22:56.772Z,45.64
2023-03-26T20:25:30.182Z,45.92
2023-03-26T20:27:59.600Z,45.42
2023-03-26T20:30:37.345Z,45.58
2023-03-26T20:33:12.004Z,45.55
2023-03-26T20:35:41.640Z,45.71
2023-03-26T20:38:10.071Z,46.17
2023-03-26T20:40:38.726Z,45.06
2023-03-26T20:43:12.381Z,45.79
2023-03-26T20:45:40.331Z,46.37
2023-03-26T20:48:09.539Z,45.61
2023-03-26T20:50:41.593Z,45.78
2023-03-26T20:53:17.042Z,44.92
2023-03-26T20:55:46.675Z,44.97
2023-03-26T20:58:15.308Z,46.01
2023-03-26T21:00:45.192Z,45.64
2023-03-26T21:03:15.160Z,45.16
2023-03-26T21:05:43.532Z,44.34
2023-03-26T21:08:18.779Z,45.31
2023-03-26T21:10:47.551Z,44.72
2023-03-26T21:13:29.728Z,45.91
2023-03-26T21:15:59.429Z,44.80
2023-03-26T21:18:29.114Z,44.61
2023-03-26T21:21:21.043Z,44.70
2023-03-26T21:24:00.446Z,43.60
2023-03-26T21:26:44.646Z,46.03
2023-03-26T21:29:12.296Z,46.09
2023-03-26T21:31:40.117Z,45.65
2023-03-26T21:34:08.605Z,45.55
2023-03-26T21:36:39.022Z,47.27
2023-03-26T21:39:07.422Z,47.68
2023-03-26T21:42:04.488Z,47.71
2023-03-26T21:44:34.344Z,47.04
2023-03-26T21:47:01.794Z,47.03
2023-03-26T21:49:29.282Z,48.02
2023-03-26T21:51:56.879Z,47.78
2023-03-26T21:54:30.042Z,45.75
2023-03-26T21:57:17.965Z,45.93
2023-03-26T22:00:15.764Z,45.94
2023-03-26T22:03:03.089Z,48.08
2023-03-26T22:05:44.120Z,46.76
2023-03-26T22:08:31.733Z,47.14
2023-03-26T22:10:59.113Z,46.70
2023-03-26T22:13:26.299Z,47.14
2023-03-26T22:15:54.013Z,46.90
2023-03-26T22:18:21.958Z,46.97
2023-03-26T22:20:49.531Z,47.48
2023-03-26T22:23:17.143Z,47.70
2023-03-26T22:25:44.713Z,49.22
2023-03-26T22:28:12.300Z,49.45
2023-03-26T22:30:39.637Z,49.92
2023-03-26T22:33:11.487Z,50.90
2023-03-26T22:35:39.394Z,53.14
2023-03-26T22:38:07.192Z,50.91
2023-03-26T22:40:34.398Z,50.09
2023-03-26T22:43:01.965Z,50.89
2023-03-26T22:45:30.380Z,51.81
2023-03-26T22:48:03.427Z,52.07
2023-03-26T22:50:32.422Z,49.74
2023-03-26T22:52:59.609Z,50.30
2023-03-26T22:55:28.198Z,51.09
2023-03-26T22:57:57.136Z,48.69
2023-03-26T23:00:26.750Z,51.96
2023-03-26T23:02:56.121Z,50.77
2023-03-26T23:05:23.815Z,51.37
2023-03-26T23:07:52.541Z,49.70
2023-03-26T23:10:19.632Z,52.49
2023-03-26T23:12:47.316Z,54.97
2023-03-26T23:15:14.393Z,53.73
2023-03-26T23:17:41.688Z,53.77
2023-03-26T23:20:15.498Z,54.20
2023-03-26T23:22:43.488Z,54.28
2023-03-26T23:25:12.082Z,55.34
2023-03-26T23:27:40.369Z,57.00
2023-03-26T23:30:08.502Z,56.98
2023-03-26T23:32:38.319Z,57.44
2023-03-26T23:35:06.408Z,58.12
2023-03-26T23:37:35.350Z,58.50
2023-03-26T23:40:06.087Z,59.02
2023-03-26T23:42:34.767Z,59.47
2023-03-26T23:45:02.297Z,59.80
2023-03-26T23:47:34.860Z,60.84
2023-03-26T23:50:02.947Z,63.74
2023-03-26T23:52:31.003Z,62.34
2023-03-26T23:55:01.339Z,60.55
2023-03-26T23:57:29.338Z,59.55
2023-03-26T23:59:56.549Z,59.21
